createdAt,value
2023-03-16T00:00:43.670Z,12.80
2023-03-16T00:03:12.176Z,11.50
2023-03-16T00:05:40.488Z,12.60
2023-03-16T00:08:09.388Z,13.30
2023-03-16T00:10:37.453Z,12.10
2023-03-16T00:13:25.368Z,13.10
2023-03-16T00:15:55.322Z,13.40
2023-03-16T00:18:27.313Z,13.90
2023-03-16T00:21:02.499Z,12.30
2023-03-16T00:23:35.931Z,12.90
2023-03-16T00:26:06.197Z,13.70
2023-03-16T00:28:37.780Z,14.60
2023-03-16T00:31:12.214Z,13.70
2023-03-16T00:33:43.036Z,15.00
2023-03-16T00:36:11.826Z,13.90
2023-03-16T00:38:49.303Z,15.00
2023-03-16T00:41:17.407Z,14.50
2023-03-16T00:43:49.113Z,14.00
2023-03-16T00:46:17.660Z,14.30
2023-03-16T00:48:51.514Z,15.80
2023-03-16T00:51:19.757Z,15.20
2023-03-16T00:53:48.232Z,13.00
2023-03-16T00:56:20.395Z,13.90
2023-03-16T00:58:49.616Z,14.30
2023-03-16T01:01:19.851Z,14.60
2023-03-16T01:03:49.980Z,15.40
2023-03-16T01:06:20.791Z,13.40
2023-03-16T01:08:49.452Z,12.80
2023-03-16T01:11:19.074Z,13.50
2023-03-16T01:13:49.237Z,14.30
2023-03-16T01:16:19.195Z,13.90
2023-03-16T01:18:52.524Z,13.70
2023-03-16T01:21:21.905Z,12.80
2023-03-16T01:23:54.060Z,13.60
2023-03-16T01:26:23.343Z,13.40
2023-03-16T01:28:51.751Z,13.20
2023-03-16T01:31:19.890Z,13.50
2023-03-16T01:33:48.612Z,14.30
2023-03-16T01:36:22.169Z,13.80
2023-03-16T01:38:57.141Z,12.40
2023-03-16T01:41:28.022Z,12.90
2023-03-16T01:43:58.807Z,14.40
2023-03-16T01:46:29.726Z,14.20
2023-03-16T01:49:06.649Z,15.40
2023-03-16T01:51:45.408Z,15.10
2023-03-16T01:54:19.244Z,14.10
2023-03-16T01:57:08.105Z,12.50
2023-03-16T01:59:59.766Z,13.50
2023-03-16T02:02:30.153Z,15.00
2023-03-16T02:05:00.242Z,14.50
2023-03-16T02:07:30.597Z,15.20
2023-03-16T02:10:02.670Z,16.20
2023-03-16T02:12:34.955Z,14.80
2023-03-16T02:15:04.969Z,14.40
2023-03-16T02:17:34.383Z,17.20
2023-03-16T02:20:11.851Z,17.10
2023-03-16T02:22:44.524Z,20.10
2023-03-16T02:25:14.130Z,19.30
2023-03-16T02:28:01.060Z,18.60
2023-03-16T02:30:30.064Z,18.60
2023-03-16T02:33:06.200Z,17.80
2023-03-16T02:35:34.467Z,17.80
2023-03-16T02:38:04.120Z,19.30
2023-03-16T02:40:36.157Z,20.40
2023-03-16T02:43:11.335Z,19.90
2023-03-16T02:45:45.033Z,21.40
2023-03-16T02:48:17.488Z,19.50
2023-03-16T02:50:52.025Z,19.30
2023-03-16T02:53:20.814Z,21.00
2023-03-16T02:55:52.135Z,23.00
2023-03-16T02:58:21.283Z,29.30
2023-03-16T03:00:49.625Z,77.10
2023-03-16T03:03:18.942Z,69.30
2023-03-16T03:05:46.981Z,50.80
2023-03-16T03:08:20.581Z,46.40
2023-03-16T03:10:49.860Z,33.70
2023-03-16T03:13:17.934Z,26.80
2023-03-16T03:15:47.229Z,26.80
2023-03-16T03:18:15.363Z,26.90
2023-03-16T03:20:43.617Z,43.10
2023-03-16T03:23:11.770Z,24.30
2023-03-16T03:25:43.426Z,26.50
2023-03-16T03:28:11.950Z,31.40
2023-03-16T03:30:40.500Z,33.30
2023-03-16T03:33:08.795Z,28.70
2023-03-16T03:35:39.001Z,41.00
2023-03-16T03:38:08.576Z,31.30
2023-03-16T03:40:44.033Z,32.70
2023-03-16T03:43:13.755Z,32.60
2023-03-16T03:45:44.600Z,29.20
2023-03-16T03:48:15.975Z,29.10
2023-03-16T03:50:43.973Z,34.90
2023-03-16T03:53:23.225Z,32.00
2023-03-16T03:56:09.270Z,27.90
2023-03-16T03:58:39.270Z,23.40
2023-03-16T04:01:07.378Z,23.80
2023-03-16T04:03:36.790Z,24.50
2023-03-16T04:06:08.166Z,23.80
2023-03-16T04:08:37.211Z,22.90
2023-03-16T04:11:13.776Z,24.00
2023-03-16T04:13:47.270Z,21.80
2023-03-16T04:16:17.244Z,20.00
2023-03-16T04:18:48.439Z,23.70
2023-03-16T04:21:17.424Z,22.30
2023-03-16T04:23:47.846Z,24.90
2023-03-16T04:26:16.187Z,28.90
2023-03-16T04:28:47.606Z,27.70
2023-03-16T04:31:19.838Z,32.30
2023-03-16T04:33:50.787Z,32.20
2023-03-16T04:36:19.240Z,35.60
2023-03-16T04:38:47.380Z,31.40
2023-03-16T04:41:16.456Z,28.80
2023-03-16T04:43:55.554Z,26.40
2023-03-16T04:46:27.307Z,23.70
2023-03-16T04:48:58.444Z,25.50
2023-03-16T04:51:27.005Z,25.00
2023-03-16T04:54:04.726Z,27.30
2023-03-16T04:56:37.338Z,25.00
2023-03-16T04:59:09.852Z,25.60
2023-03-16T05:01:48.617Z,23.20
2023-03-16T05:04:19.567Z,21.10
2023-03-16T05:06:48.443Z,21.60
2023-03-16T05:09:20.775Z,21.90
2023-03-16T05:11:48.880Z,22.70
2023-03-16T05:14:17.838Z,21.40
2023-03-16T05:17:15.296Z,19.80
2023-03-16T05:19:44.074Z,21.90
2023-03-16T05:22:15.979Z,21.40
2023-03-16T05:27:34.452Z,24.90
2023-03-16T05:30:04.223Z,22.90
2023-03-16T05:32:33.193Z,21.70
2023-03-16T05:35:23.067Z,21.30
2023-03-16T05:37:53.459Z,22.00
2023-03-16T05:40:23.275Z,20.10
2023-03-16T05:43:05.958Z,20.90
2023-03-16T05:45:35.918Z,18.50
2023-03-16T05:48:10.732Z,18.80
2023-03-16T05:50:44.961Z,18.60
2023-03-16T05:53:15.520Z,21.40
2023-03-16T05:55:43.778Z,22.10
2023-03-16T05:58:13.685Z,20.90
2023-03-16T06:00:42.543Z,20.40
2023-03-16T06:03:18.523Z,19.70
2023-03-16T06:05:47.400Z,20.10
2023-03-16T06:08:16.541Z,18.40
2023-03-16T06:10:52.708Z,21.10
2023-03-16T06:13:23.517Z,22.90
2023-03-16T06:15:51.756Z,19.80
2023-03-16T06:18:21.614Z,18.90
2023-03-16T06:20:50.257Z,19.80
2023-03-16T06:23:20.449Z,18.80
2023-03-16T06:25:49.153Z,19.20
2023-03-16T06:28:17.597Z,19.70
2023-03-16T06:30:46.943Z,17.80
2023-03-16T06:33:15.371Z,16.80
2023-03-16T06:35:43.382Z,17.60
2023-03-16T06:38:20.347Z,17.00
2023-03-16T06:40:55.343Z,17.20
2023-03-16T06:43:24.503Z,17.30
2023-03-16T06:45:53.453Z,16.70
2023-03-16T06:48:21.822Z,17.10
2023-03-16T06:50:49.859Z,18.10
2023-03-16T06:53:22.257Z,19.50
2023-03-16T06:55:52.718Z,16.50
2023-03-16T06:58:22.387Z,16.70
2023-03-16T07:03:25.102Z,17.70
2023-03-16T07:05:57.641Z,18.50
2023-03-16T07:08:30.628Z,19.40
2023-03-16T07:10:59.680Z,19.00
2023-03-16T07:13:27.780Z,17.70
2023-03-16T07:15:56.158Z,21.60
2023-03-16T07:19:24.085Z,30.80
2023-03-16T07:21:54.018Z,26.30
2023-03-16T07:24:22.890Z,21.50
2023-03-16T07:26:51.148Z,18.50
2023-03-16T07:29:26.281Z,19.50
2023-03-16T07:31:55.047Z,19.50
2023-03-16T07:34:33.934Z,19.40
2023-03-16T07:37:02.227Z,21.20
2023-03-16T07:39:33.094Z,19.30
2023-03-16T07:42:11.022Z,21.10
2023-03-16T07:45:01.872Z,20.80
2023-03-16T07:47:34.087Z,19.60
2023-03-16T07:50:09.091Z,20.00
2023-03-16T07:52:44.132Z,19.50
2023-03-16T07:55:13.535Z,20.40
2023-03-16T07:57:42.687Z,18.50
2023-03-16T08:00:14.348Z,17.80
2023-03-16T08:02:43.633Z,19.50
2023-03-16T08:05:20.831Z,18.60
2023-03-16T08:08:05.109Z,18.60
2023-03-16T08:10:34.509Z,20.20
2023-03-16T08:13:11.692Z,21.50
2023-03-16T08:15:49.545Z,19.70
2023-03-16T08:18:26.790Z,18.60
2023-03-16T08:20:57.741Z,22.00
2023-03-16T08:23:29.440Z,23.80
2023-03-16T08:25:57.985Z,22.40
2023-03-16T08:28:26.836Z,22.50
2023-03-16T08:30:56.135Z,20.30
2023-03-16T08:33:47.544Z,21.60
2023-03-16T08:36:17.118Z,21.40
2023-03-16T08:39:06.215Z,24.00
2023-03-16T08:41:47.201Z,24.60
2023-03-16T08:44:30.379Z,22.80
2023-03-16T08:47:00.170Z,23.70
2023-03-16T08:49:30.189Z,24.80
2023-03-16T08:52:06.159Z,24.70
2023-03-16T08:54:35.702Z,43.00
2023-03-16T08:57:06.189Z,34.20
2023-03-16T08:59:37.170Z,33.50
2023-03-16T09:02:05.309Z,33.00
2023-03-16T09:04:35.356Z,30.10
2023-03-16T09:07:08.919Z,25.60
2023-03-16T09:09:40.317Z,21.40
2023-03-16T09:12:09.247Z,22.70
2023-03-16T09:14:40.036Z,22.00
2023-03-16T09:17:11.834Z,22.30
2023-03-16T09:19:51.674Z,28.00
2023-03-16T09:22:21.704Z,24.20
2023-03-16T09:24:51.293Z,25.20
2023-03-16T09:27:23.007Z,24.00
2023-03-16T09:29:59.556Z,23.00
2023-03-16T09:32:28.514Z,20.30
2023-03-16T09:34:56.995Z,20.60
2023-03-16T09:37:35.348Z,21.20
2023-03-16T09:40:34.063Z,19.80
2023-03-16T09:43:28.150Z,20.40
2023-03-16T09:46:02.352Z,20.20
2023-03-16T09:48:35.702Z,21.60
2023-03-16T09:51:07.852Z,20.60
2023-03-16T09:53:39.762Z,19.80
2023-03-16T09:56:29.271Z,18.20
2023-03-16T09:58:59.151Z,19.30
2023-03-16T10:01:51.350Z,18.40
2023-03-16T10:04:37.842Z,20.40
2023-03-16T10:07:24.798Z,19.80
2023-03-16T10:09:57.171Z,17.70
2023-03-16T10:12:32.477Z,17.30
2023-03-16T10:15:27.532Z,17.10
2023-03-16T10:18:18.082Z,18.20
2023-03-16T10:20:49.291Z,18.30
2023-03-16T10:23:20.879Z,19.00
2023-03-16T10:25:54.222Z,18.60
2023-03-16T10:28:23.918Z,17.70
2023-03-16T10:30:54.984Z,15.20
2023-03-16T10:33:31.825Z,15.00
2023-03-16T10:36:03.433Z,16.70
2023-03-16T10:38:48.250Z,16.70
2023-03-16T10:41:23.101Z,17.50
2023-03-16T10:44:08.402Z,17.80
2023-03-16T10:46:51.369Z,15.10
2023-03-16T10:49:44.515Z,14.70
2023-03-16T10:52:34.642Z,16.40
2023-03-16T10:55:30.999Z,16.70
2023-03-16T10:58:00.049Z,18.60
2023-03-16T11:00:46.770Z,17.60
2023-03-16T11:03:32.706Z,20.70
2023-03-16T11:06:20.934Z,19.00
2023-03-16T11:08:49.635Z,18.30
2023-03-16T11:11:28.111Z,18.10
2023-03-16T11:13:59.940Z,18.10
2023-03-16T11:16:37.284Z,16.20
2023-03-16T11:19:21.873Z,17.70
2023-03-16T11:21:57.185Z,15.40
2023-03-16T11:25:09.613Z,14.40
2023-03-16T11:28:13.552Z,15.70
2023-03-16T11:30:47.626Z,17.00
2023-03-16T11:33:17.214Z,18.20
2023-03-16T11:36:01.365Z,15.50
2023-03-16T11:39:00.547Z,17.70
2023-03-16T11:41:38.138Z,16.00
2023-03-16T11:44:30.766Z,16.80
2023-03-16T11:47:26.136Z,17.70
2023-03-16T11:50:27.509Z,17.10
2023-03-16T11:53:20.535Z,17.30
2023-03-16T11:56:02.245Z,16.40
2023-03-16T11:58:50.104Z,16.30
2023-03-16T12:01:54.375Z,15.60
2023-03-16T12:04:48.581Z,16.40
2023-03-16T12:08:00.576Z,16.80
2023-03-16T12:11:06.109Z,17.50
2023-03-16T12:13:57.001Z,18.70
2023-03-16T12:16:33.124Z,15.10
2023-03-16T12:19:06.787Z,15.20
2023-03-16T12:21:39.516Z,17.70
2023-03-16T12:24:28.725Z,16.50
2023-03-16T12:26:57.470Z,17.50
2023-03-16T12:29:43.829Z,17.90
2023-03-16T12:32:25.985Z,18.10
2023-03-16T12:35:06.994Z,16.20
2023-03-16T12:37:47.793Z,17.10
2023-03-16T12:40:31.519Z,17.20
2023-03-16T12:43:37.118Z,17.00
2023-03-16T12:46:14.223Z,17.60
2023-03-16T12:48:46.634Z,17.80
2023-03-16T12:51:14.680Z,14.70
2023-03-16T12:53:51.883Z,15.40
2023-03-16T12:56:30.420Z,16.20
2023-03-16T12:59:00.396Z,20.00
2023-03-16T13:01:30.727Z,19.60
2023-03-16T13:04:12.993Z,19.00
2023-03-16T13:06:48.457Z,17.10
2023-03-16T13:09:19.811Z,17.40
2023-03-16T13:11:51.725Z,22.10
2023-03-16T13:14:42.743Z,28.50
2023-03-16T13:17:18.506Z,20.70
2023-03-16T13:20:18.228Z,21.70
2023-03-16T13:23:22.307Z,19.90
2023-03-16T13:26:15.884Z,15.20
2023-03-16T13:28:47.122Z,15.10
2023-03-16T13:31:27.724Z,16.20
2023-03-16T13:33:59.946Z,20.60
2023-03-16T13:39:17.545Z,17.80
2023-03-16T13:41:59.944Z,15.00
2023-03-16T13:44:28.600Z,15.60
2023-03-16T13:46:57.098Z,15.30
2023-03-16T13:49:25.304Z,16.60
2023-03-16T13:51:53.982Z,15.80
2023-03-16T13:54:28.126Z,20.20
2023-03-16T13:56:58.251Z,17.50
2023-03-16T13:59:26.655Z,16.10
2023-03-16T14:01:59.839Z,15.00
2023-03-16T14:04:29.919Z,17.30
2023-03-16T14:07:03.806Z,19.20
2023-03-16T14:09:35.813Z,18.10
2023-03-16T14:12:04.403Z,17.50
2023-03-16T14:14:42.016Z,17.90
2023-03-16T14:17:13.753Z,15.80
2023-03-16T14:19:51.040Z,18.90
2023-03-16T14:22:24.098Z,12.60
2023-03-16T14:27:40.052Z,32.10
2023-03-16T14:30:27.017Z,20.40
2023-03-16T14:32:56.905Z,20.20
2023-03-16T14:35:30.540Z,12.30
2023-03-16T14:38:41.102Z,9.00
2023-03-16T14:41:24.114Z,10.40
2023-03-16T14:43:55.772Z,10.90
2023-03-16T14:46:30.855Z,11.00
2023-03-16T14:49:10.491Z,11.80
2023-03-16T14:51:39.234Z,9.80
2023-03-16T14:54:19.153Z,8.90
2023-03-16T14:56:55.736Z,9.80
2023-03-16T14:59:24.474Z,10.30
2023-03-16T15:01:55.423Z,10.50
2023-03-16T15:04:30.341Z,10.80
2023-03-16T15:06:58.773Z,9.50
2023-03-16T15:09:34.943Z,9.10
2023-03-16T15:12:03.310Z,10.60
2023-03-16T15:15:00.767Z,11.70
2023-03-16T15:17:32.680Z,12.00
2023-03-16T15:20:01.440Z,9.90
2023-03-16T15:22:32.605Z,10.00
2023-03-16T15:25:37.467Z,9.70
2023-03-16T15:28:17.667Z,10.00
2023-03-16T15:30:53.870Z,10.10
2023-03-16T15:33:22.963Z,10.90
2023-03-16T15:35:53.015Z,9.10
2023-03-16T15:38:22.992Z,8.70
2023-03-16T15:40:51.447Z,10.60
2023-03-16T15:43:24.676Z,11.90
2023-03-16T15:45:54.289Z,12.60
2023-03-16T15:48:24.733Z,10.70
2023-03-16T15:51:04.891Z,10.40
2023-03-16T15:53:36.132Z,11.10
2023-03-16T15:56:09.858Z,11.90
2023-03-16T15:58:42.714Z,13.10
2023-03-16T16:01:26.814Z,11.00
2023-03-16T16:03:56.213Z,10.90
2023-03-16T16:06:24.493Z,10.50
2023-03-16T16:08:52.870Z,11.80
2023-03-16T16:11:26.183Z,13.30
2023-03-16T16:13:57.938Z,14.20
2023-03-16T16:16:29.960Z,20.60
2023-03-16T16:18:58.401Z,26.70
2023-03-16T16:21:33.937Z,22.40
2023-03-16T16:24:03.300Z,20.80
2023-03-16T16:26:48.566Z,15.70
2023-03-16T16:29:23.998Z,16.00
2023-03-16T16:31:53.110Z,15.50
2023-03-16T16:34:25.836Z,15.40
2023-03-16T16:36:55.307Z,15.90
2023-03-16T16:39:24.786Z,14.90
2023-03-16T16:41:57.233Z,13.30
2023-03-16T16:44:32.126Z,11.40
2023-03-16T16:47:19.272Z,11.30
2023-03-16T16:49:49.137Z,10.50
2023-03-16T16:52:17.690Z,10.40
2023-03-16T16:54:46.379Z,18.20
2023-03-16T16:57:18.596Z,16.70
2023-03-16T16:59:48.083Z,12.30
2023-03-16T17:02:30.098Z,11.00
2023-03-16T17:04:58.934Z,10.70
2023-03-16T17:07:30.082Z,10.80
2023-03-16T17:10:00.117Z,10.40
2023-03-16T17:12:29.850Z,11.80
2023-03-16T17:14:58.237Z,11.70
2023-03-16T17:17:29.227Z,11.70
2023-03-16T17:19:58.296Z,16.30
2023-03-16T17:22:30.396Z,16.10
2023-03-16T17:25:00.609Z,14.90
2023-03-16T17:27:30.515Z,14.60
2023-03-16T17:29:58.659Z,12.10
2023-03-16T17:32:27.410Z,10.30
2023-03-16T17:34:55.921Z,10.10
2023-03-16T17:37:23.956Z,10.70
2023-03-16T17:39:52.487Z,11.60
2023-03-16T17:42:23.016Z,10.90
2023-03-16T17:44:52.419Z,12.20
2023-03-16T17:47:21.684Z,11.00
2023-03-16T17:49:51.548Z,9.70
2023-03-16T17:52:23.481Z,9.10
2023-03-16T17:54:53.634Z,8.50
2023-03-16T17:57:28.544Z,9.80
2023-03-16T17:59:56.875Z,9.50
2023-03-16T18:02:54.612Z,8.80
2023-03-16T18:05:27.215Z,8.20
2023-03-16T18:08:07.315Z,8.20
2023-03-16T18:10:44.953Z,8.90
2023-03-16T18:13:22.816Z,9.60
2023-03-16T18:15:53.028Z,9.50
2023-03-16T18:18:27.313Z,6.90
2023-03-16T18:21:02.028Z,6.70
2023-03-16T18:23:32.032Z,7.10
2023-03-16T18:26:07.285Z,7.50
2023-03-16T18:28:38.095Z,7.90
2023-03-16T18:31:08.092Z,7.10
2023-03-16T18:33:39.823Z,7.00
2023-03-16T18:36:16.389Z,6.50
2023-03-16T18:38:47.423Z,6.90
2023-03-16T18:41:30.087Z,6.90
2023-03-16T18:44:18.999Z,7.50
2023-03-16T18:46:48.526Z,8.20
2023-03-16T18:49:36.308Z,7.20
2023-03-16T18:52:07.627Z,5.90
2023-03-16T18:54:39.101Z,6.10
2023-03-16T18:57:36.356Z,5.80
2023-03-16T19:00:06.683Z,5.70
2023-03-16T19:02:38.119Z,6.10
2023-03-16T19:05:12.774Z,6.70
2023-03-16T19:07:42.806Z,5.50
2023-03-16T19:10:21.252Z,5.90
2023-03-16T19:12:50.692Z,5.20
2023-03-16T19:15:30.968Z,6.80
2023-03-16T19:18:00.020Z,5.80
2023-03-16T19:20:30.673Z,5.90
2023-03-16T19:23:24.469Z,6.20
2023-03-16T19:25:53.526Z,5.60
2023-03-16T19:28:34.313Z,6.10
2023-03-16T19:31:05.345Z,6.30
2023-03-16T19:33:33.856Z,4.70
2023-03-16T19:37:29.406Z,5.00
2023-03-16T19:39:56.368Z,5.40
2023-03-16T19:42:32.896Z,5.80
2023-03-16T19:44:59.635Z,5.70
2023-03-16T19:47:32.819Z,4.90
2023-03-16T19:50:00.358Z,4.50
2023-03-16T19:52:27.683Z,4.70
2023-03-16T19:54:54.215Z,4.40
2023-03-16T19:57:20.914Z,4.10
2023-03-16T19:59:57.088Z,4.50
2023-03-16T20:02:26.597Z,4.00
2023-03-16T20:04:54.158Z,3.40
2023-03-16T20:07:21.233Z,3.70
2023-03-16T20:09:47.876Z,4.50
2023-03-16T20:12:28.267Z,3.90
2023-03-16T20:14:59.099Z,4.00
2023-03-16T20:17:27.874Z,3.40
2023-03-16T20:19:54.987Z,3.80
2023-03-16T20:22:23.897Z,5.10
2023-03-16T20:24:50.864Z,4.30
2023-03-16T20:27:22.242Z,3.90
2023-03-16T20:29:50.028Z,3.70
2023-03-16T20:32:28.117Z,2.50
2023-03-16T20:34:56.018Z,2.50
2023-03-16T20:37:25.955Z,2.70
2023-03-16T20:40:06.347Z,3.40
2023-03-16T20:42:34.498Z,3.40
2023-03-16T20:45:25.406Z,2.90
2023-03-16T20:47:53.149Z,2.30
2023-03-16T20:50:24.504Z,2.40
2023-03-16T20:52:53.069Z,2.30
2023-03-16T20:55:22.650Z,2.30
2023-03-16T20:57:51.361Z,2.80
2023-03-16T21:00:25.896Z,2.60
2023-03-16T21:02:54.106Z,2.80
2023-03-16T21:05:20.702Z,2.40
2023-03-16T21:07:48.338Z,2.70
2023-03-16T21:10:17.608Z,3.70
2023-03-16T21:12:49.149Z,4.30
2023-03-16T21:15:27.472Z,11.00
2023-03-16T21:18:03.465Z,8.40
2023-03-16T21:20:32.050Z,5.10
2023-03-16T21:22:59.147Z,2.90
2023-03-16T21:25:31.206Z,2.70
2023-03-16T21:28:01.021Z,2.20
2023-03-16T21:30:33.383Z,2.20
2023-03-16T21:33:01.249Z,2.10
2023-03-16T21:35:35.990Z,1.90
2023-03-16T21:38:15.766Z,1.90
2023-03-16T21:40:43.573Z,2.80
2023-03-16T21:43:13.868Z,1.70
2023-03-16T21:45:41.211Z,1.70
2023-03-16T21:48:38.438Z,1.30
2023-03-16T21:51:14.166Z,2.20
2023-03-16T21:53:40.925Z,1.50
2023-03-16T21:56:12.438Z,1.40
2023-03-16T21:58:40.013Z,1.50
2023-03-16T22:01:15.965Z,1.60
2023-03-16T22:03:50.941Z,1.50
2023-03-16T22:06:19.471Z,1.40
2023-03-16T22:08:46.493Z,1.50
2023-03-16T22:11:18.380Z,1.50
2023-03-16T22:13:45.831Z,2.40
2023-03-16T22:16:17.362Z,1.40
2023-03-16T22:18:46.511Z,1.60
2023-03-16T22:21:36.002Z,1.70
2023-03-16T22:24:13.606Z,2.10
2023-03-16T22:26:41.718Z,1.60
2023-03-16T22:29:28.645Z,2.30
2023-03-16T22:32:02.390Z,2.30
2023-03-16T22:34:36.925Z,2.50
2023-03-16T22:37:04.068Z,2.10
2023-03-16T22:39:32.942Z,2.00
2023-03-16T22:42:03.627Z,1.70
2023-03-16T22:44:30.844Z,1.90
2023-03-16T22:46:57.601Z,2.00
2023-03-16T22:49:29.777Z,1.60
2023-03-16T22:51:57.392Z,1.60
2023-03-16T22:54:28.928Z,1.70
2023-03-16T22:56:55.898Z,1.60
2023-03-16T22:59:22.603Z,1.90
2023-03-16T23:01:49.433Z,1.70
2023-03-16T23:04:16.519Z,1.80
2023-03-16T23:06:49.147Z,1.90
2023-03-16T23:09:16.399Z,1.80
2023-03-16T23:11:47.582Z,1.60
2023-03-16T23:14:20.962Z,1.50
2023-03-16T23:16:48.043Z,1.50
2023-03-16T23:19:26.092Z,2.30
2023-03-16T23:21:57.300Z,2.50
2023-03-16T23:24:24.706Z,2.20
2023-03-16T23:26:52.495Z,1.60
2023-03-16T23:29:20.447Z,1.50
2023-03-16T23:31:49.147Z,1.40
2023-03-16T23:34:17.990Z,1.20
2023-03-16T23:36:47.589Z,1.40
2023-03-16T23:39:14.668Z,1.10
2023-03-16T23:41:43.490Z,1.70
2023-03-16T23:44:21.711Z,1.40
2023-03-16T23:46:49.033Z,1.20
2023-03-16T23:49:24.099Z,1.30
2023-03-16T23:51:51.428Z,1.10
2023-03-16T23:54:23.467Z,1.50
2023-03-16T23:56:50.992Z,1.20
2023-03-16T23:59:18.604Z,1.50
